sensor_id;sensor_type;location;lat;lon;timestamp;noise_LAeq;noise_LA_min;noise_LA_max;noise_LA01;noise_LA95
69605;Laerm;56811;52.220;4.668;2022-07-09T00:00:01;32.23;30.03;35.28;;
69605;Laerm;56811;52.220;4.668;2022-07-09T00:00:12;31.66;29.68;35.77;;
69605;Laerm;56811;52.220;4.668;2022-07-09T00:00:22;31.68;29.86;33.40;;
69605;Laerm;56811;52.220;4.668;2022-07-09T00:00:33;31.16;29.72;33.39;;
69605;Laerm;56811;52.220;4.668;2022-07-09T00:00:43;31.22;29.82;35.29;;
69605;Laerm;56811;52.220;4.668;2022-07-09T00:00:53;31.41;29.85;33.73;;
69605;Laerm;56811;52.220;4.668;2022-07-09T00:01:04;31.85;30.10;33.84;;
69605;Laerm;56811;52.220;4.668;2022-07-09T00:01:15;31.55;29.94;33.28;;
69605;Laerm;56811;52.220;4.668;2022-07-09T00:01:25;31.61;30.32;33.71;;
69605;Laerm;56811;52.220;4.668;2022-07-09T00:01:35;31.83;29.92;33.34;;
69605;Laerm;56811;52.220;4.668;2022-07-09T00:01:46;31.83;29.93;33.51;;
69605;Laerm;56811;52.220;4.668;2022-07-09T00:01:56;31.63;30.11;33.92;;
69605;Laerm;56811;52.220;4.668;2022-07-09T00:02:06;31.63;29.97;33.75;;
69605;Laerm;56811;52.220;4.668;2022-07-09T00:02:17;32.06;29.83;34.27;;
69605;Laerm;56811;52.220;4.668;2022-07-09T00:02:27;35.45;32.18;41.04;;
69605;Laerm;56811;52.220;4.668;2022-07-09T00:02:37;33.99;30.68;38.23;;
69605;Laerm;56811;52.220;4.668;2022-07-09T00:02:48;33.77;31.56;36.81;;
69605;Laerm;56811;52.220;4.668;2022-07-09T00:02:58;36.76;32.49;41.48;;
69605;Laerm;56811;52.220;4.668;2022-07-09T00:03:08;35.06;30.73;38.76;;
69605;Laerm;56811;52.220;4.668;2022-07-09T00:03:18;36.25;31.92;41.22;;
69605;Laerm;56811;52.220;4.668;2022-07-09T00:03:29;42.28;34.94;50.12;;
69605;Laerm;56811;52.220;4.668;2022-07-09T00:03:39;54.85;43.13;61.31;;
69605;Laerm;56811;52.220;4.668;2022-07-09T00:03:50;60.08;56.47;63.97;;
69605;Laerm;56811;52.220;4.668;2022-07-09T00:04:02;55.32;48.88;60.81;;
69605;Laerm;56811;52.220;4.668;2022-07-09T00:04:12;52.44;48.71;57.04;;
69605;Laerm;56811;52.220;4.668;2022-07-09T00:04:22;51.21;46.32;55.64;;
69605;Laerm;56811;52.220;4.668;2022-07-09T00:04:33;47.55;41.55;51.80;;
69605;Laerm;56811;52.220;4.668;2022-07-09T00:04:43;40.83;36.19;45.04;;
69605;Laerm;56811;52.220;4.668;2022-07-09T00:04:53;36.60;33.08;40.99;;
69605;Laerm;56811;52.220;4.668;2022-07-09T00:05:04;33.76;31.28;36.68;;
69605;Laerm;56811;52.220;4.668;2022-07-09T00:05:14;33.58;31.40;35.27;;
69605;Laerm;56811;52.220;4.668;2022-07-09T00:05:24;33.08;31.04;35.40;;
69605;Laerm;56811;52.220;4.668;2022-07-09T00:05:35;31.83;30.12;33.41;;
69605;Laerm;56811;52.220;4.668;2022-07-09T00:05:45;31.70;30.12;33.49;;
69605;Laerm;56811;52.220;4.668;2022-07-09T00:05:55;32.12;30.42;34.97;;
69605;Laerm;56811;52.220;4.668;2022-07-09T00:06:06;31.35;29.46;33.30;;
69605;Laerm;56811;52.220;4.668;2022-07-09T00:06:16;31.45;29.86;33.59;;
69605;Laerm;56811;52.220;4.668;2022-07-09T00:06:27;33.53;30.48;38.61;;
69605;Laerm;56811;52.220;4.668;2022-07-09T00:06:38;32.21;30.52;35.47;;
69605;Laerm;56811;52.220;4.668;2022-07-09T00:06:49;32.25;30.72;35.26;;
69605;Laerm;56811;52.220;4.668;2022-07-09T00:06:59;31.53;29.72;34.28;;
69605;Laerm;56811;52.220;4.668;2022-07-09T00:07:10;31.33;29.38;33.17;;
69605;Laerm;56811;52.220;4.668;2022-07-09T00:07:20;31.33;29.21;33.34;;
69605;Laerm;56811;52.220;4.668;2022-07-09T00:07:30;31.54;29.93;33.33;;
69605;Laerm;56811;52.220;4.668;2022-07-09T00:07:41;31.48;29.97;33.33;;
69605;Laerm;56811;52.220;4.668;2022-07-09T00:07:51;32.21;30.47;41.40;;
69605;Laerm;56811;52.220;4.668;2022-07-09T00:08:01;31.15;29.41;33.50;;
69605;Laerm;56811;52.220;4.668;2022-07-09T00:08:12;31.56;29.70;33.61;;
69605;Laerm;56811;52.220;4.668;2022-07-09T00:08:22;31.11;29.65;33.86;;
69605;Laerm;56811;52.220;4.668;2022-07-09T00:08:33;31.75;30.08;33.41;;
69605;Laerm;56811;52.220;4.668;2022-07-09T00:08:43;31.43;30.09;32.95;;
69605;Laerm;56811;52.220;4.668;2022-07-09T00:08:53;31.31;30.00;32.91;;
69605;Laerm;56811;52.220;4.668;2022-07-09T00:09:03;31.14;29.60;32.57;;
69605;Laerm;56811;52.220;4.668;2022-07-09T00:09:14;31.48;29.99;33.17;;
69605;Laerm;56811;52.220;4.668;2022-07-09T00:09:24;31.68;30.24;33.69;;
69605;Laerm;56811;52.220;4.668;2022-07-09T00:09:34;32.75;29.73;36.24;;
69605;Laerm;56811;52.220;4.668;2022-07-09T00:09:45;32.35;30.05;35.13;;
69605;Laerm;56811;52.220;4.668;2022-07-09T00:09:55;31.90;29.71;34.16;;
69605;Laerm;56811;52.220;4.668;2022-07-09T00:10:05;32.05;30.28;33.81;;
69605;Laerm;56811;52.220;4.668;2022-07-09T00:10:16;32.14;30.19;34.28;;
69605;Laerm;56811;52.220;4.668;2022-07-09T00:10:26;31.72;29.71;33.23;;
69605;Laerm;56811;52.220;4.668;2022-07-09T00:10:37;31.89;30.06;34.59;;
69605;Laerm;56811;52.220;4.668;2022-07-09T00:10:47;31.75;29.90;33.77;;
69605;Laerm;56811;52.220;4.668;2022-07-09T00:10:57;32.13;30.53;34.05;;
69605;Laerm;56811;52.220;4.668;2022-07-09T00:11:08;32.31;29.96;37.00;;
69605;Laerm;56811;52.220;4.668;2022-07-09T00:11:18;31.89;30.13;33.97;;
69605;Laerm;56811;52.220;4.668;2022-07-09T00:11:28;32.12;30.50;33.89;;
69605;Laerm;56811;52.220;4.668;2022-07-09T00:11:39;32.08;30.12;34.32;;
69605;Laerm;56811;52.220;4.668;2022-07-09T00:11:49;31.91;30.25;33.35;;
69605;Laerm;56811;52.220;4.668;2022-07-09T00:12:00;32.82;30.67;36.67;;
69605;Laerm;56811;52.220;4.668;2022-07-09T00:12:10;33.66;31.69;37.12;;
69605;Laerm;56811;52.220;4.668;2022-07-09T00:12:21;33.52;31.52;36.30;;
69605;Laerm;56811;52.220;4.668;2022-07-09T00:12:31;33.30;30.31;36.56;;
69605;Laerm;56811;52.220;4.668;2022-07-09T00:12:41;32.58;30.65;34.67;;
69605;Laerm;56811;52.220;4.668;2022-07-09T00:12:52;32.78;31.06;36.85;;
69605;Laerm;56811;52.220;4.668;2022-07-09T00:13:02;32.83;30.72;36.17;;
69605;Laerm;56811;52.220;4.668;2022-07-09T00:13:12;31.52;29.97;33.41;;
69605;Laerm;56811;52.220;4.668;2022-07-09T00:13:23;31.05;29.55;32.58;;
69605;Laerm;56811;52.220;4.668;2022-07-09T00:13:33;30.93;29.54;32.44;;
69605;Laerm;56811;52.220;4.668;2022-07-09T00:13:43;31.16;29.84;32.35;;
69605;Laerm;56811;52.220;4.668;2022-07-09T00:13:54;33.52;30.21;45.72;;
69605;Laerm;56811;52.220;4.668;2022-07-09T00:14:04;32.17;30.01;34.60;;
69605;Laerm;56811;52.220;4.668;2022-07-09T00:14:14;31.59;29.64;33.60;;
69605;Laerm;56811;52.220;4.668;2022-07-09T00:14:24;31.26;29.59;33.08;;
69605;Laerm;56811;52.220;4.668;2022-07-09T00:14:35;32.33;30.43;34.52;;
69605;Laerm;56811;52.220;4.668;2022-07-09T00:14:45;32.97;30.40;36.17;;
69605;Laerm;56811;52.220;4.668;2022-07-09T00:14:56;32.86;30.86;34.77;;
69605;Laerm;56811;52.220;4.668;2022-07-09T00:15:07;33.10;30.53;35.52;;
69605;Laerm;56811;52.220;4.668;2022-07-09T00:15:17;33.10;30.75;36.05;;
69605;Laerm;56811;52.220;4.668;2022-07-09T00:15:27;32.65;30.37;35.01;;
69605;Laerm;56811;52.220;4.668;2022-07-09T00:15:38;32.35;30.53;35.15;;
69605;Laerm;56811;52.220;4.668;2022-07-09T00:15:48;33.17;30.59;36.26;;
69605;Laerm;56811;52.220;4.668;2022-07-09T00:16:00;32.59;30.25;35.45;;
69605;Laerm;56811;52.220;4.668;2022-07-09T00:16:10;32.64;30.25;34.52;;
69605;Laerm;56811;52.220;4.668;2022-07-09T00:16:20;33.09;30.97;35.37;;
69605;Laerm;56811;52.220;4.668;2022-07-09T00:16:31;33.53;31.29;35.99;;
69605;Laerm;56811;52.220;4.668;2022-07-09T00:16:41;32.35;30.41;35.04;;
69605;Laerm;56811;52.220;4.668;2022-07-09T00:16:51;32.59;30.35;34.84;;
69605;Laerm;56811;52.220;4.668;2022-07-09T00:17:02;31.62;29.95;33.70;;
69605;Laerm;56811;52.220;4.668;2022-07-09T00:17:12;31.55;30.11;33.51;;
69605;Laerm;56811;52.220;4.668;2022-07-09T00:17:22;31.83;30.49;33.71;;
69605;Laerm;56811;52.220;4.668;2022-07-09T00:17:33;31.65;30.10;33.80;;
69605;Laerm;56811;52.220;4.668;2022-07-09T00:17:43;31.39;29.89;35.23;;
69605;Laerm;56811;52.220;4.668;2022-07-09T00:17:54;31.80;30.20;34.81;;
69605;Laerm;56811;52.220;4.668;2022-07-09T00:18:04;32.11;30.41;33.84;;
69605;Laerm;56811;52.220;4.668;2022-07-09T00:18:14;32.99;31.06;35.44;;
69605;Laerm;56811;52.220;4.668;2022-07-09T00:18:25;33.15;31.31;37.62;;
69605;Laerm;56811;52.220;4.668;2022-07-09T00:18:35;33.72;31.91;35.72;;
69605;Laerm;56811;52.220;4.668;2022-07-09T00:18:45;34.29;31.73;37.78;;
69605;Laerm;56811;52.220;4.668;2022-07-09T00:18:56;33.54;30.93;36.10;;
69605;Laerm;56811;52.220;4.668;2022-07-09T00:19:06;34.04;30.81;38.34;;
69605;Laerm;56811;52.220;4.668;2022-07-09T00:19:17;33.44;30.43;36.36;;
69605;Laerm;56811;52.220;4.668;2022-07-09T00:19:27;32.31;30.70;34.50;;
69605;Laerm;56811;52.220;4.668;2022-07-09T00:19:38;33.31;31.21;35.31;;
69605;Laerm;56811;52.220;4.668;2022-07-09T00:19:48;32.71;30.42;34.90;;
69605;Laerm;56811;52.220;4.668;2022-07-09T00:19:58;32.72;30.80;35.36;;
69605;Laerm;56811;52.220;4.668;2022-07-09T00:20:09;33.35;31.08;35.78;;
69605;Laerm;56811;52.220;4.668;2022-07-09T00:20:20;32.75;30.68;35.27;;
69605;Laerm;56811;52.220;4.668;2022-07-09T00:20:30;32.15;30.56;34.97;;
69605;Laerm;56811;52.220;4.668;2022-07-09T00:20:40;31.63;29.84;36.10;;
69605;Laerm;56811;52.220;4.668;2022-07-09T00:20:51;31.80;29.82;35.78;;
69605;Laerm;56811;52.220;4.668;2022-07-09T00:21:03;31.79;29.78;35.37;;
69605;Laerm;56811;52.220;4.668;2022-07-09T00:21:14;31.48;29.76;32.95;;
69605;Laerm;56811;52.220;4.668;2022-07-09T00:21:24;32.57;30.22;35.36;;
69605;Laerm;56811;52.220;4.668;2022-07-09T00:21:34;32.98;30.93;37.69;;
69605;Laerm;56811;52.220;4.668;2022-07-09T00:21:45;33.81;30.55;37.27;;
69605;Laerm;56811;52.220;4.668;2022-07-09T00:21:55;32.04;30.58;33.57;;
69605;Laerm;56811;52.220;4.668;2022-07-09T00:22:05;32.33;30.39;34.85;;
69605;Laerm;56811;52.220;4.668;2022-07-09T00:22:16;33.92;31.09;36.87;;
69605;Laerm;56811;52.220;4.668;2022-07-09T00:22:26;33.01;31.08;35.21;;
69605;Laerm;56811;52.220;4.668;2022-07-09T00:22:37;32.07;29.89;34.15;;
69605;Laerm;56811;52.220;4.668;2022-07-09T00:22:47;31.50;29.99;32.79;;
69605;Laerm;56811;52.220;4.668;2022-07-09T00:22:58;31.19;29.78;32.74;;
69605;Laerm;56811;52.220;4.668;2022-07-09T00:23:08;31.42;29.94;33.64;;
69605;Laerm;56811;52.220;4.668;2022-07-09T00:23:19;31.31;30.01;33.36;;
69605;Laerm;56811;52.220;4.668;2022-07-09T00:23:29;31.01;29.64;32.83;;
69605;Laerm;56811;52.220;4.668;2022-07-09T00:23:39;31.34;29.79;32.72;;
69605;Laerm;56811;52.220;4.668;2022-07-09T00:23:50;31.38;29.73;32.75;;
69605;Laerm;56811;52.220;4.668;2022-07-09T00:24:00;31.17;29.62;33.35;;
69605;Laerm;56811;52.220;4.668;2022-07-09T00:24:10;32.00;30.15;34.98;;
69605;Laerm;56811;52.220;4.668;2022-07-09T00:24:21;31.32;30.05;32.99;;
69605;Laerm;56811;52.220;4.668;2022-07-09T00:24:31;31.31;29.80;33.14;;
69605;Laerm;56811;52.220;4.668;2022-07-09T00:24:42;31.11;29.63;32.68;;
69605;Laerm;56811;52.220;4.668;2022-07-09T00:24:52;31.17;29.35;33.41;;
69605;Laerm;56811;52.220;4.668;2022-07-09T00:25:02;31.57;29.82;32.96;;
69605;Laerm;56811;52.220;4.668;2022-07-09T00:25:14;31.83;30.19;33.11;;
69605;Laerm;56811;52.220;4.668;2022-07-09T00:25:24;31.81;29.95;33.31;;
69605;Laerm;56811;52.220;4.668;2022-07-09T00:25:34;32.34;30.36;34.32;;
69605;Laerm;56811;52.220;4.668;2022-07-09T00:25:45;31.87;30.10;33.53;;
69605;Laerm;56811;52.220;4.668;2022-07-09T00:25:55;31.12;29.80;32.96;;
69605;Laerm;56811;52.220;4.668;2022-07-09T00:26:05;31.03;29.36;32.31;;
69605;Laerm;56811;52.220;4.668;2022-07-09T00:26:16;31.13;29.52;32.62;;
69605;Laerm;56811;52.220;4.668;2022-07-09T00:26:28;31.02;29.34;32.57;;
69605;Laerm;56811;52.220;4.668;2022-07-09T00:26:38;31.22;29.58;32.70;;
69605;Laerm;56811;52.220;4.668;2022-07-09T00:26:49;31.35;30.06;33.01;;
69605;Laerm;56811;52.220;4.668;2022-07-09T00:26:59;31.12;29.84;32.51;;
69605;Laerm;56811;52.220;4.668;2022-07-09T00:27:09;31.41;29.75;32.78;;
69605;Laerm;56811;52.220;4.668;2022-07-09T00:27:20;31.68;30.04;33.63;;
69605;Laerm;56811;52.220;4.668;2022-07-09T00:27:30;31.84;30.28;33.74;;
69605;Laerm;56811;52.220;4.668;2022-07-09T00:27:40;32.13;30.57;34.54;;
69605;Laerm;56811;52.220;4.668;2022-07-09T00:27:50;32.49;30.67;34.64;;
69605;Laerm;56811;52.220;4.668;2022-07-09T00:28:01;32.19;30.26;33.77;;
69605;Laerm;56811;52.220;4.668;2022-07-09T00:28:11;32.28;30.46;40.71;;
69605;Laerm;56811;52.220;4.668;2022-07-09T00:28:22;31.62;30.02;33.42;;
69605;Laerm;56811;52.220;4.668;2022-07-09T00:28:32;31.41;29.96;33.50;;
69605;Laerm;56811;52.220;4.668;2022-07-09T00:28:42;31.36;29.85;33.81;;
69605;Laerm;56811;52.220;4.668;2022-07-09T00:28:52;32.41;30.72;37.07;;
69605;Laerm;56811;52.220;4.668;2022-07-09T00:29:03;31.83;30.24;39.31;;
69605;Laerm;56811;52.220;4.668;2022-07-09T00:29:13;31.75;30.16;33.39;;
69605;Laerm;56811;52.220;4.668;2022-07-09T00:29:23;32.33;30.26;34.82;;
69605;Laerm;56811;52.220;4.668;2022-07-09T00:29:34;32.34;30.42;34.90;;
69605;Laerm;56811;52.220;4.668;2022-07-09T00:29:44;32.21;30.62;34.14;;
69605;Laerm;56811;52.220;4.668;2022-07-09T00:29:54;32.39;30.37;34.60;;
69605;Laerm;56811;52.220;4.668;2022-07-09T00:30:05;32.04;30.34;33.69;;
69605;Laerm;56811;52.220;4.668;2022-07-09T00:30:15;31.69;30.13;33.63;;
69605;Laerm;56811;52.220;4.668;2022-07-09T00:30:26;31.76;30.40;33.49;;
69605;Laerm;56811;52.220;4.668;2022-07-09T00:30:36;31.90;30.36;33.61;;
69605;Laerm;56811;52.220;4.668;2022-07-09T00:30:46;31.75;29.92;33.57;;
69605;Laerm;56811;52.220;4.668;2022-07-09T00:30:57;31.28;29.59;32.71;;
69605;Laerm;56811;52.220;4.668;2022-07-09T00:31:07;31.47;29.82;33.24;;
69605;Laerm;56811;52.220;4.668;2022-07-09T00:31:17;32.08;30.71;33.80;;
69605;Laerm;56811;52.220;4.668;2022-07-09T00:31:28;32.29;30.54;34.77;;
69605;Laerm;56811;52.220;4.668;2022-07-09T00:31:38;32.87;30.61;35.04;;
69605;Laerm;56811;52.220;4.668;2022-07-09T00:31:48;33.01;31.33;34.46;;
69605;Laerm;56811;52.220;4.668;2022-07-09T00:31:59;32.57;30.77;35.43;;
69605;Laerm;56811;52.220;4.668;2022-07-09T00:32:09;32.60;30.48;34.81;;
69605;Laerm;56811;52.220;4.668;2022-07-09T00:32:19;32.84;31.26;34.56;;
69605;Laerm;56811;52.220;4.668;2022-07-09T00:32:30;32.61;30.72;34.94;;
69605;Laerm;56811;52.220;4.668;2022-07-09T00:32:40;31.80;29.99;34.08;;
69605;Laerm;56811;52.220;4.668;2022-07-09T00:32:50;31.69;30.10;33.33;;
69605;Laerm;56811;52.220;4.668;2022-07-09T00:33:01;32.28;30.06;34.22;;
69605;Laerm;56811;52.220;4.668;2022-07-09T00:33:11;31.97;30.01;33.65;;
69605;Laerm;56811;52.220;4.668;2022-07-09T00:33:21;32.00;30.10;34.36;;
69605;Laerm;56811;52.220;4.668;2022-07-09T00:33:32;32.23;30.13;34.01;;
69605;Laerm;56811;52.220;4.668;2022-07-09T00:33:42;31.13;29.37;32.90;;
69605;Laerm;56811;52.220;4.668;2022-07-09T00:33:53;31.32;29.35;33.36;;
69605;Laerm;56811;52.220;4.668;2022-07-09T00:34:03;31.62;29.79;34.12;;
69605;Laerm;56811;52.220;4.668;2022-07-09T00:34:14;31.97;29.62;34.33;;
69605;Laerm;56811;52.220;4.668;2022-07-09T00:34:24;31.80;29.65;33.66;;
69605;Laerm;56811;52.220;4.668;2022-07-09T00:34:34;31.59;30.15;33.86;;
69605;Laerm;56811;52.220;4.668;2022-07-09T00:34:45;31.30;29.88;39.59;;
69605;Laerm;56811;52.220;4.668;2022-07-09T00:34:55;31.16;29.50;33.21;;
69605;Laerm;56811;52.220;4.668;2022-07-09T00:35:06;31.91;30.24;33.76;;
69605;Laerm;56811;52.220;4.668;2022-07-09T00:35:16;31.40;29.81;33.71;;
69605;Laerm;56811;52.220;4.668;2022-07-09T00:35:26;31.66;29.97;34.37;;
69605;Laerm;56811;52.220;4.668;2022-07-09T00:35:37;31.76;30.12;33.25;;
69605;Laerm;56811;52.220;4.668;2022-07-09T00:35:47;31.57;30.00;33.45;;
69605;Laerm;56811;52.220;4.668;2022-07-09T00:35:57;31.70;29.71;34.06;;
69605;Laerm;56811;52.220;4.668;2022-07-09T00:36:08;32.74;29.99;46.77;;
69605;Laerm;56811;52.220;4.668;2022-07-09T00:36:18;32.48;30.77;34.54;;
69605;Laerm;56811;52.220;4.668;2022-07-09T00:36:28;33.37;31.22;35.31;;
69605;Laerm;56811;52.220;4.668;2022-07-09T00:36:39;33.63;32.11;35.28;;
69605;Laerm;56811;52.220;4.668;2022-07-09T00:36:49;33.47;31.44;35.33;;
69605;Laerm;56811;52.220;4.668;2022-07-09T00:36:59;33.86;32.21;36.48;;
69605;Laerm;56811;52.220;4.668;2022-07-09T00:37:10;33.27;31.18;35.93;;
69605;Laerm;56811;52.220;4.668;2022-07-09T00:37:21;33.23;30.69;36.17;;
69605;Laerm;56811;52.220;4.668;2022-07-09T00:37:31;31.83;29.83;33.73;;
69605;Laerm;56811;52.220;4.668;2022-07-09T00:37:42;31.85;30.33;33.55;;
69605;Laerm;56811;52.220;4.668;2022-07-09T00:37:52;32.53;30.67;34.56;;
69605;Laerm;56811;52.220;4.668;2022-07-09T00:38:02;32.58;30.77;34.13;;
69605;Laerm;56811;52.220;4.668;2022-07-09T00:38:13;33.01;30.89;35.06;;
69605;Laerm;56811;52.220;4.668;2022-07-09T00:38:23;32.52;30.91;37.65;;
69605;Laerm;56811;52.220;4.668;2022-07-09T00:38:33;32.91;31.06;39.94;;
69605;Laerm;56811;52.220;4.668;2022-07-09T00:38:44;34.23;31.82;37.57;;
69605;Laerm;56811;52.220;4.668;2022-07-09T00:38:54;32.76;31.02;35.42;;
69605;Laerm;56811;52.220;4.668;2022-07-09T00:39:04;31.85;30.40;34.89;;
69605;Laerm;56811;52.220;4.668;2022-07-09T00:39:15;31.72;29.88;33.24;;
69605;Laerm;56811;52.220;4.668;2022-07-09T00:39:25;32.74;30.76;35.27;;
69605;Laerm;56811;52.220;4.668;2022-07-09T00:39:36;33.42;31.25;36.61;;
69605;Laerm;56811;52.220;4.668;2022-07-09T00:39:46;32.47;30.79;34.63;;
69605;Laerm;56811;52.220;4.668;2022-07-09T00:39:56;32.80;30.71;35.45;;
69605;Laerm;56811;52.220;4.668;2022-07-09T00:40:07;32.09;30.37;36.44;;
69605;Laerm;56811;52.220;4.668;2022-07-09T00:40:17;31.85;29.95;33.71;;
69605;Laerm;56811;52.220;4.668;2022-07-09T00:40:27;31.46;29.94;34.97;;
69605;Laerm;56811;52.220;4.668;2022-07-09T00:40:38;31.87;29.65;34.21;;
69605;Laerm;56811;52.220;4.668;2022-07-09T00:40:48;32.55;30.92;34.94;;
69605;Laerm;56811;52.220;4.668;2022-07-09T00:41:00;32.67;30.41;35.06;;
69605;Laerm;56811;52.220;4.668;2022-07-09T00:41:11;32.72;30.52;35.39;;
69605;Laerm;56811;52.220;4.668;2022-07-09T00:41:21;32.21;30.08;35.92;;
69605;Laerm;56811;52.220;4.668;2022-07-09T00:41:32;32.05;29.95;34.12;;
69605;Laerm;56811;52.220;4.668;2022-07-09T00:41:42;32.52;30.85;37.08;;
69605;Laerm;56811;52.220;4.668;2022-07-09T00:42:02;31.80;30.03;33.66;;
69605;Laerm;56811;52.220;4.668;2022-07-09T00:42:13;32.44;30.45;35.62;;
69605;Laerm;56811;52.220;4.668;2022-07-09T00:42:24;32.33;30.87;34.38;;
69605;Laerm;56811;52.220;4.668;2022-07-09T00:42:35;32.40;30.35;34.35;;
69605;Laerm;56811;52.220;4.668;2022-07-09T00:42:45;33.04;31.02;36.74;;
69605;Laerm;56811;52.220;4.668;2022-07-09T00:42:55;32.06;30.00;35.07;;
69605;Laerm;56811;52.220;4.668;2022-07-09T00:43:18;31.25;29.76;33.03;;
69605;Laerm;56811;52.220;4.668;2022-07-09T00:43:29;31.50;29.48;35.15;;
69605;Laerm;56811;52.220;4.668;2022-07-09T00:43:47;31.45;29.71;33.59;;
69605;Laerm;56811;52.220;4.668;2022-07-09T00:43:58;32.22;30.17;38.15;;
69605;Laerm;56811;52.220;4.668;2022-07-09T00:44:08;32.14;30.20;34.18;;
69605;Laerm;56811;52.220;4.668;2022-07-09T00:44:19;33.06;31.40;35.08;;
69605;Laerm;56811;52.220;4.668;2022-07-09T00:44:29;34.27;31.74;38.16;;
69605;Laerm;56811;52.220;4.668;2022-07-09T00:44:39;33.99;31.63;36.33;;
69605;Laerm;56811;52.220;4.668;2022-07-09T00:44:50;34.58;32.24;37.50;;
69605;Laerm;56811;52.220;4.668;2022-07-09T00:45:00;34.19;31.57;38.05;;
69605;Laerm;56811;52.220;4.668;2022-07-09T00:45:11;34.40;32.09;37.80;;
69605;Laerm;56811;52.220;4.668;2022-07-09T00:45:21;34.38;31.88;38.32;;
69605;Laerm;56811;52.220;4.668;2022-07-09T00:45:31;34.49;31.42;39.43;;
69605;Laerm;56811;52.220;4.668;2022-07-09T00:45:42;34.28;30.86;37.49;;
69605;Laerm;56811;52.220;4.668;2022-07-09T00:45:52;34.15;31.33;39.00;;
69605;Laerm;56811;52.220;4.668;2022-07-09T00:46:02;33.31;30.50;36.38;;
69605;Laerm;56811;52.220;4.668;2022-07-09T00:46:12;33.60;30.84;36.94;;
69605;Laerm;56811;52.220;4.668;2022-07-09T00:46:23;33.61;30.87;45.14;;
69605;Laerm;56811;52.220;4.668;2022-07-09T00:46:33;33.40;31.19;36.70;;
69605;Laerm;56811;52.220;4.668;2022-07-09T00:46:43;33.36;31.47;35.73;;
69605;Laerm;56811;52.220;4.668;2022-07-09T00:46:54;33.43;31.21;35.97;;
69605;Laerm;56811;52.220;4.668;2022-07-09T00:47:04;33.65;31.32;35.56;;
69605;Laerm;56811;52.220;4.668;2022-07-09T00:47:16;33.74;31.24;35.99;;
69605;Laerm;56811;52.220;4.668;2022-07-09T00:47:26;34.41;32.16;37.08;;
69605;Laerm;56811;52.220;4.668;2022-07-09T00:47:36;33.70;31.61;36.82;;
69605;Laerm;56811;52.220;4.668;2022-07-09T00:47:47;32.70;30.96;34.48;;
69605;Laerm;56811;52.220;4.668;2022-07-09T00:47:57;32.74;30.92;34.58;;
69605;Laerm;56811;52.220;4.668;2022-07-09T00:48:08;33.06;31.46;35.04;;
69605;Laerm;56811;52.220;4.668;2022-07-09T00:48:18;33.49;31.13;39.34;;
69605;Laerm;56811;52.220;4.668;2022-07-09T00:48:30;32.52;30.39;34.61;;
69605;Laerm;56811;52.220;4.668;2022-07-09T00:48:40;35.27;31.13;40.64;;
69605;Laerm;56811;52.220;4.668;2022-07-09T00:48:50;34.75;32.12;39.50;;
69605;Laerm;56811;52.220;4.668;2022-07-09T00:49:00;33.59;31.40;35.63;;
69605;Laerm;56811;52.220;4.668;2022-07-09T00:49:13;34.17;31.28;47.54;;
69605;Laerm;56811;52.220;4.668;2022-07-09T00:49:27;33.45;31.33;35.12;;
69605;Laerm;56811;52.220;4.668;2022-07-09T00:49:39;34.37;31.98;40.06;;
69605;Laerm;56811;52.220;4.668;2022-07-09T00:49:52;33.98;31.86;37.06;;
69605;Laerm;56811;52.220;4.668;2022-07-09T00:50:03;33.27;31.48;35.01;;
69605;Laerm;56811;52.220;4.668;2022-07-09T00:50:14;34.16;31.21;41.47;;
69605;Laerm;56811;52.220;4.668;2022-07-09T00:50:24;32.93;31.06;34.59;;
69605;Laerm;56811;52.220;4.668;2022-07-09T00:50:35;33.17;31.48;35.70;;
69605;Laerm;56811;52.220;4.668;2022-07-09T00:50:46;33.73;31.86;36.32;;
69605;Laerm;56811;52.220;4.668;2022-07-09T00:50:57;33.67;31.74;35.86;;
69605;Laerm;56811;52.220;4.668;2022-07-09T00:51:07;33.52;31.69;35.67;;
69605;Laerm;56811;52.220;4.668;2022-07-09T00:51:18;34.32;31.38;39.40;;
69605;Laerm;56811;52.220;4.668;2022-07-09T00:51:30;33.00;30.98;35.48;;
69605;Laerm;56811;52.220;4.668;2022-07-09T00:51:40;32.52;30.53;34.91;;
69605;Laerm;56811;52.220;4.668;2022-07-09T00:51:51;32.53;30.35;34.47;;
69605;Laerm;56811;52.220;4.668;2022-07-09T00:52:02;32.74;30.56;35.11;;
69605;Laerm;56811;52.220;4.668;2022-07-09T00:52:13;32.90;30.41;35.47;;
69605;Laerm;56811;52.220;4.668;2022-07-09T00:52:23;32.22;30.16;36.28;;
69605;Laerm;56811;52.220;4.668;2022-07-09T00:52:33;32.73;29.62;38.37;;
69605;Laerm;56811;52.220;4.668;2022-07-09T00:52:45;31.66;30.19;33.06;;
69605;Laerm;56811;52.220;4.668;2022-07-09T00:52:56;32.28;30.37;42.04;;
69605;Laerm;56811;52.220;4.668;2022-07-09T00:53:07;33.17;31.63;35.25;;
69605;Laerm;56811;52.220;4.668;2022-07-09T00:53:19;32.53;30.87;34.60;;
69605;Laerm;56811;52.220;4.668;2022-07-09T00:53:31;33.19;30.65;35.45;;
69605;Laerm;56811;52.220;4.668;2022-07-09T00:53:42;33.61;30.96;37.23;;
69605;Laerm;56811;52.220;4.668;2022-07-09T00:53:52;33.52;30.53;36.97;;
69605;Laerm;56811;52.220;4.668;2022-07-09T00:54:03;32.69;29.99;36.25;;
69605;Laerm;56811;52.220;4.668;2022-07-09T00:54:13;32.11;30.38;33.91;;
69605;Laerm;56811;52.220;4.668;2022-07-09T00:54:24;32.16;30.09;35.85;;
69605;Laerm;56811;52.220;4.668;2022-07-09T00:54:34;32.46;30.39;36.27;;
69605;Laerm;56811;52.220;4.668;2022-07-09T00:54:46;32.06;30.40;34.39;;
69605;Laerm;56811;52.220;4.668;2022-07-09T00:54:56;31.89;30.25;36.31;;
69605;Laerm;56811;52.220;4.668;2022-07-09T00:55:09;32.21;30.44;34.56;;
69605;Laerm;56811;52.220;4.668;2022-07-09T00:55:20;32.00;29.80;34.95;;
69605;Laerm;56811;52.220;4.668;2022-07-09T00:55:30;32.06;30.02;34.36;;
69605;Laerm;56811;52.220;4.668;2022-07-09T00:55:41;32.93;30.70;35.02;;
69605;Laerm;56811;52.220;4.668;2022-07-09T00:55:54;33.81;31.46;37.38;;
69605;Laerm;56811;52.220;4.668;2022-07-09T00:56:04;34.26;31.67;37.70;;
69605;Laerm;56811;52.220;4.668;2022-07-09T00:56:15;34.89;32.19;38.77;;
69605;Laerm;56811;52.220;4.668;2022-07-09T00:56:27;34.79;32.21;38.35;;
69605;Laerm;56811;52.220;4.668;2022-07-09T00:56:38;34.35;32.17;37.84;;
69605;Laerm;56811;52.220;4.668;2022-07-09T00:56:48;35.13;31.92;38.40;;
69605;Laerm;56811;52.220;4.668;2022-07-09T00:56:58;33.92;30.96;38.03;;
69605;Laerm;56811;52.220;4.668;2022-07-09T00:57:09;34.18;30.74;40.90;;
69605;Laerm;56811;52.220;4.668;2022-07-09T00:57:20;33.70;30.97;37.29;;
69605;Laerm;56811;52.220;4.668;2022-07-09T00:57:33;33.75;30.95;38.20;;
69605;Laerm;56811;52.220;4.668;2022-07-09T00:57:43;32.64;30.35;36.19;;
69605;Laerm;56811;52.220;4.668;2022-07-09T00:57:55;32.24;30.16;37.57;;
69605;Laerm;56811;52.220;4.668;2022-07-09T00:58:05;31.60;29.23;39.29;;
69605;Laerm;56811;52.220;4.668;2022-07-09T00:58:17;31.06;29.51;33.46;;
69605;Laerm;56811;52.220;4.668;2022-07-09T00:58:27;31.27;29.47;33.46;;
69605;Laerm;56811;52.220;4.668;2022-07-09T00:58:38;30.99;29.22;32.51;;
69605;Laerm;56811;52.220;4.668;2022-07-09T00:58:49;31.36;29.72;33.34;;
69605;Laerm;56811;52.220;4.668;2022-07-09T00:59:00;32.25;29.39;39.59;;
69605;Laerm;56811;52.220;4.668;2022-07-09T00:59:11;32.16;30.37;39.67;;
69605;Laerm;56811;52.220;4.668;2022-07-09T00:59:23;31.75;30.03;33.66;;